createdAt,value
2019-06-20T00:01:08.623Z,96.20
2019-06-20T00:02:34.680Z,96.10
2019-06-20T00:04:00.465Z,96.20
2019-06-20T00:05:26.817Z,96.30
2019-06-20T00:06:52.488Z,96.30
2019-06-20T00:08:18.638Z,96.40
2019-06-20T00:09:44.160Z,96.60
2019-06-20T00:11:10.407Z,96.30
2019-06-20T00:12:35.902Z,96.30
2019-06-20T00:14:01.980Z,96.20
2019-06-20T00:15:27.580Z,96.20
2019-06-20T00:16:53.793Z,96.20
2019-06-20T00:18:19.290Z,96.30
2019-06-20T00:19:45.393Z,96.30
2019-06-20T00:21:10.888Z,96.30
2019-06-20T00:22:36.949Z,96.40
2019-06-20T00:24:02.699Z,96.40
2019-06-20T00:25:28.825Z,96.20
2019-06-20T00:26:54.293Z,96.30
2019-06-20T00:28:20.371Z,96.40
2019-06-20T00:29:45.840Z,96.40
2019-06-20T00:31:12.036Z,96.40
2019-06-20T00:32:37.473Z,96.30
2019-06-20T00:34:03.522Z,96.20
2019-06-20T00:35:29.023Z,96.20
2019-06-20T00:36:55.109Z,96.30
2019-06-20T00:38:20.599Z,96.30
2019-06-20T00:39:46.773Z,96.30
2019-06-20T00:41:12.235Z,96.20
2019-06-20T00:42:38.273Z,96.10
2019-06-20T00:44:03.729Z,96.10
2019-06-20T00:45:29.884Z,96.10
2019-06-20T00:46:55.359Z,96.10
2019-06-20T00:48:21.397Z,96.20
2019-06-20T00:49:46.863Z,96.00
2019-06-20T00:51:12.920Z,96.20
2019-06-20T00:52:38.403Z,96.10
2019-06-20T00:54:04.539Z,96.20
2019-06-20T00:55:30.188Z,96.30
2019-06-20T00:56:56.287Z,96.30
2019-06-20T00:58:21.785Z,96.10
2019-06-20T00:59:48.036Z,96.20
2019-06-20T01:01:13.534Z,96.20
2019-06-20T01:02:39.588Z,96.20
2019-06-20T01:04:05.035Z,96.20
2019-06-20T01:05:31.194Z,96.30
2019-06-20T01:06:56.750Z,96.20
2019-06-20T01:08:22.828Z,96.30
2019-06-20T01:09:48.295Z,96.30
2019-06-20T01:11:14.582Z,96.10
2019-06-20T01:12:40.063Z,96.10
2019-06-20T01:14:06.543Z,96.20
2019-06-20T01:15:32.092Z,96.10
2019-06-20T01:16:58.217Z,96.10
2019-06-20T01:18:23.768Z,95.90
2019-06-20T01:19:49.944Z,96.00
2019-06-20T01:21:17.017Z,96.20
2019-06-20T01:22:43.044Z,96.30
2019-06-20T01:24:08.648Z,96.20
2019-06-20T01:25:39.483Z,96.20
2019-06-20T01:27:05.055Z,96.20
2019-06-20T01:28:31.340Z,96.20
2019-06-20T01:29:57.305Z,96.10
2019-06-20T01:31:23.406Z,96.20
2019-06-20T01:32:48.884Z,96.20
2019-06-20T01:34:14.971Z,96.10
2019-06-20T01:35:40.425Z,96.00
2019-06-20T01:37:06.696Z,96.00
2019-06-20T01:38:32.196Z,96.30
2019-06-20T01:39:58.236Z,96.30
2019-06-20T01:41:23.916Z,96.40
2019-06-20T01:42:50.009Z,96.40
2019-06-20T01:44:15.491Z,96.40
2019-06-20T01:45:41.613Z,96.40
2019-06-20T01:47:07.219Z,96.20
2019-06-20T01:48:33.263Z,96.10
2019-06-20T01:49:58.746Z,96.10
2019-06-20T01:51:24.894Z,96.10
2019-06-20T01:52:50.374Z,96.30
2019-06-20T01:54:16.429Z,96.30
2019-06-20T01:55:42.572Z,96.40
2019-06-20T01:57:08.671Z,96.40
2019-06-20T01:58:34.163Z,96.50
2019-06-20T02:00:00.196Z,96.60
2019-06-20T02:01:28.679Z,96.50
2019-06-20T02:02:54.783Z,96.50
2019-06-20T02:04:20.364Z,96.90
2019-06-20T02:05:46.857Z,97.00
2019-06-20T02:07:12.644Z,96.90
2019-06-20T02:08:38.898Z,97.00
2019-06-20T02:10:05.114Z,97.40
2019-06-20T02:11:31.149Z,96.90
2019-06-20T02:12:56.744Z,96.60
2019-06-20T02:14:22.785Z,96.90
2019-06-20T02:15:48.400Z,97.00
2019-06-20T02:17:14.492Z,97.10
2019-06-20T02:18:40.092Z,97.00
2019-06-20T02:20:07.870Z,96.90
2019-06-20T02:21:33.328Z,96.80
2019-06-20T02:22:59.514Z,97.10
2019-06-20T02:24:25.112Z,97.20
2019-06-20T02:25:51.462Z,97.30
2019-06-20T02:27:16.903Z,97.10
2019-06-20T02:28:43.019Z,97.00
2019-06-20T02:30:08.689Z,96.90
2019-06-20T02:31:34.740Z,97.10
2019-06-20T02:33:00.254Z,97.10
2019-06-20T02:34:26.296Z,97.10
2019-06-20T02:35:51.881Z,97.00
2019-06-20T02:37:17.909Z,97.10
2019-06-20T02:38:43.433Z,96.90
2019-06-20T02:40:09.716Z,96.90
2019-06-20T02:41:35.612Z,97.00
2019-06-20T02:43:01.751Z,97.10
2019-06-20T02:44:30.456Z,97.00
2019-06-20T02:45:55.224Z,97.10
2019-06-20T02:47:20.688Z,97.30
2019-06-20T02:48:46.741Z,97.50
2019-06-20T02:50:13.215Z,97.30
2019-06-20T02:51:39.683Z,97.10
2019-06-20T02:53:05.739Z,96.90
2019-06-20T02:54:31.784Z,97.10
2019-06-20T02:55:57.364Z,97.40
2019-06-20T02:57:23.697Z,97.30
2019-06-20T02:58:49.204Z,97.40
2019-06-20T03:00:15.845Z,97.60
2019-06-20T03:01:41.328Z,97.50
2019-06-20T03:03:07.565Z,97.40
2019-06-20T03:04:33.093Z,97.70
2019-06-20T03:05:59.605Z,97.50
2019-06-20T03:07:25.188Z,97.50
2019-06-20T03:08:51.307Z,97.70
2019-06-20T03:10:16.978Z,97.80
2019-06-20T03:11:43.123Z,97.80
2019-06-20T03:13:09.540Z,97.80
2019-06-20T03:14:44.888Z,97.60
2019-06-20T03:16:03.098Z,97.70
2019-06-20T03:17:29.174Z,97.60
2019-06-20T03:18:54.657Z,97.70
2019-06-20T03:20:20.800Z,97.60
2019-06-20T03:21:46.360Z,97.40
2019-06-20T03:23:15.184Z,97.40
2019-06-20T03:24:40.668Z,97.40
2019-06-20T03:26:06.946Z,97.40
2019-06-20T03:27:32.459Z,97.50
2019-06-20T03:28:58.534Z,97.50
2019-06-20T03:30:24.097Z,97.50
2019-06-20T03:31:50.150Z,97.50
2019-06-20T03:33:15.910Z,97.40
2019-06-20T03:34:42.151Z,97.50
2019-06-20T03:36:07.913Z,97.50
2019-06-20T03:37:33.949Z,97.50
2019-06-20T03:38:59.568Z,97.60
2019-06-20T03:40:25.851Z,97.60
2019-06-20T03:41:51.319Z,97.50
2019-06-20T03:43:17.458Z,97.60
2019-06-20T03:44:43.022Z,97.50
2019-06-20T03:46:09.052Z,97.50
2019-06-20T03:47:34.774Z,97.20
2019-06-20T03:49:00.935Z,97.30
2019-06-20T03:50:26.579Z,97.50
2019-06-20T03:51:52.784Z,97.40
2019-06-20T03:53:18.266Z,97.30
2019-06-20T03:54:44.391Z,97.40
2019-06-20T03:56:09.956Z,97.50
2019-06-20T03:57:36.125Z,97.30
2019-06-20T03:59:04.220Z,97.30
2019-06-20T04:00:33.903Z,97.40
2019-06-20T04:01:59.379Z,97.40
2019-06-20T04:03:25.474Z,97.40
2019-06-20T04:04:50.998Z,97.70
2019-06-20T04:06:17.220Z,97.50
2019-06-20T04:07:42.699Z,97.50
2019-06-20T04:09:08.842Z,97.80
2019-06-20T04:10:34.871Z,97.50
2019-06-20T04:12:01.038Z,97.50
2019-06-20T04:13:26.716Z,97.30
2019-06-20T04:14:52.828Z,97.30
2019-06-20T04:16:18.467Z,97.30
2019-06-20T04:17:44.536Z,97.40
2019-06-20T04:19:10.022Z,97.30
2019-06-20T04:20:36.299Z,97.20
2019-06-20T04:22:01.799Z,97.30
2019-06-20T04:23:27.834Z,97.40
2019-06-20T04:24:53.370Z,97.50
2019-06-20T04:26:19.456Z,97.50
2019-06-20T04:27:44.977Z,97.40
2019-06-20T04:29:10.965Z,97.40
2019-06-20T04:30:36.506Z,97.30
2019-06-20T04:32:02.544Z,97.40
2019-06-20T04:33:28.109Z,97.50
2019-06-20T04:34:54.200Z,98.00
2019-06-20T04:36:19.862Z,97.70
2019-06-20T04:37:45.911Z,97.90
2019-06-20T04:39:19.360Z,98.10
2019-06-20T04:40:39.124Z,97.90
2019-06-20T04:42:04.783Z,97.80
2019-06-20T04:43:30.856Z,98.00
2019-06-20T04:44:57.881Z,98.10
2019-06-20T04:46:35.416Z,98.20
2019-06-20T04:48:00.915Z,98.00
2019-06-20T04:49:27.012Z,98.00
2019-06-20T04:50:52.531Z,98.10
2019-06-20T04:52:18.573Z,98.10
2019-06-20T04:53:44.153Z,98.10
2019-06-20T04:55:10.459Z,98.10
2019-06-20T04:56:36.065Z,98.10
2019-06-20T04:58:02.164Z,97.90
2019-06-20T04:59:27.619Z,97.90
2019-06-20T05:00:53.805Z,97.90
2019-06-20T05:02:20.898Z,97.90
2019-06-20T05:03:46.976Z,98.20
2019-06-20T05:05:12.591Z,98.20
2019-06-20T05:06:38.720Z,98.50
2019-06-20T05:08:04.404Z,98.70
2019-06-20T05:09:30.473Z,98.30
2019-06-20T05:10:56.056Z,98.10
2019-06-20T05:12:22.590Z,98.30
2019-06-20T05:13:48.073Z,98.20
2019-06-20T05:15:15.670Z,98.50
2019-06-20T05:16:41.176Z,98.40
2019-06-20T05:18:07.336Z,98.20
2019-06-20T05:19:32.816Z,98.20
2019-06-20T05:20:58.982Z,98.50
2019-06-20T05:22:24.491Z,98.50
2019-06-20T05:23:50.559Z,98.40
2019-06-20T05:25:16.237Z,98.60
2019-06-20T05:26:42.348Z,98.80
2019-06-20T05:28:07.884Z,98.70
2019-06-20T05:29:34.060Z,98.90
2019-06-20T05:30:59.543Z,98.80
2019-06-20T05:32:25.639Z,99.00
2019-06-20T05:33:51.120Z,98.70
2019-06-20T05:35:17.299Z,98.50
2019-06-20T05:36:42.827Z,98.50
2019-06-20T05:38:08.898Z,98.70
2019-06-20T05:39:34.423Z,98.50
2019-06-20T05:41:00.623Z,98.40
2019-06-20T05:42:26.560Z,98.50
2019-06-20T05:43:52.644Z,98.60
2019-06-20T05:45:18.745Z,98.20
2019-06-20T05:46:44.935Z,98.20
2019-06-20T05:48:10.439Z,98.60
2019-06-20T05:49:37.116Z,98.40
2019-06-20T05:51:02.789Z,98.40
2019-06-20T05:52:29.147Z,98.40
2019-06-20T05:53:54.756Z,98.30
2019-06-20T05:55:20.976Z,98.60
2019-06-20T05:56:46.490Z,98.60
2019-06-20T05:58:12.584Z,98.60
2019-06-20T05:59:38.170Z,98.20
2019-06-20T06:01:04.351Z,98.60
2019-06-20T06:02:29.889Z,98.70
2019-06-20T06:03:56.053Z,98.90
2019-06-20T06:05:21.898Z,98.90
2019-06-20T06:06:48.218Z,99.10
2019-06-20T06:08:13.679Z,99.20
2019-06-20T06:09:39.740Z,99.00
2019-06-20T06:11:06.242Z,99.10
2019-06-20T06:12:32.485Z,98.90
2019-06-20T06:13:57.981Z,99.00
2019-06-20T06:15:24.877Z,98.90
2019-06-20T06:16:50.504Z,98.80
2019-06-20T06:18:16.578Z,98.80
2019-06-20T06:19:42.084Z,99.00
2019-06-20T06:21:10.245Z,98.90
2019-06-20T06:22:35.929Z,99.00
2019-06-20T06:24:02.179Z,99.10
2019-06-20T06:25:27.733Z,98.70
2019-06-20T06:26:53.925Z,98.90
2019-06-20T06:28:19.419Z,99.00
2019-06-20T06:29:45.509Z,99.00
2019-06-20T06:31:11.103Z,98.70
2019-06-20T06:32:40.342Z,99.00
2019-06-20T06:34:04.660Z,99.10
2019-06-20T06:35:30.948Z,99.00
2019-06-20T06:36:56.577Z,98.90
2019-06-20T06:38:22.677Z,98.90
2019-06-20T06:39:48.248Z,98.90
2019-06-20T06:41:14.320Z,98.80
2019-06-20T06:42:40.140Z,98.70
2019-06-20T06:44:08.451Z,98.80
2019-06-20T06:45:34.155Z,99.00
2019-06-20T06:47:01.763Z,99.30
2019-06-20T06:48:27.345Z,98.90
2019-06-20T06:49:53.451Z,99.00
2019-06-20T06:51:19.162Z,99.10
2019-06-20T06:52:45.211Z,98.70
2019-06-20T06:54:10.709Z,98.70
2019-06-20T06:55:38.112Z,98.90
2019-06-20T06:57:03.699Z,99.00
2019-06-20T06:58:29.808Z,99.00
2019-06-20T06:59:55.286Z,98.80
2019-06-20T07:01:21.493Z,98.90
2019-06-20T07:02:46.983Z,99.50
2019-06-20T07:04:13.183Z,99.40
2019-06-20T07:05:38.799Z,99.50
2019-06-20T07:07:04.858Z,99.60
2019-06-20T07:08:30.435Z,99.80
2019-06-20T07:09:56.609Z,99.60
2019-06-20T07:11:22.192Z,99.30
2019-06-20T07:12:48.381Z,99.10
2019-06-20T07:14:13.907Z,99.00
2019-06-20T07:15:39.989Z,98.90
2019-06-20T07:17:05.720Z,98.90
2019-06-20T07:18:31.935Z,98.80
2019-06-20T07:19:57.522Z,98.60
2019-06-20T07:21:23.604Z,98.70
2019-06-20T07:22:49.189Z,98.50
2019-06-20T07:24:15.279Z,98.60
2019-06-20T07:25:40.736Z,98.50
2019-06-20T07:27:06.899Z,98.50
2019-06-20T07:28:32.436Z,98.50
2019-06-20T07:29:58.535Z,98.40
2019-06-20T07:31:24.028Z,98.30
2019-06-20T07:32:50.099Z,98.20
2019-06-20T07:34:15.730Z,98.00
2019-06-20T07:35:42.037Z,97.90
2019-06-20T07:37:07.662Z,97.70
2019-06-20T07:38:33.723Z,97.80
2019-06-20T07:39:59.259Z,97.90
2019-06-20T07:41:25.425Z,97.80
2019-06-20T07:42:50.919Z,97.70
2019-06-20T07:44:16.997Z,97.70
2019-06-20T07:45:42.478Z,97.70
2019-06-20T07:47:17.447Z,97.60
2019-06-20T07:48:35.619Z,97.60
2019-06-20T07:50:01.695Z,97.60
2019-06-20T07:51:27.192Z,97.60
2019-06-20T07:53:01.818Z,97.50
2019-06-20T07:54:20.391Z,97.80
2019-06-20T07:55:46.596Z,97.60
2019-06-20T07:57:12.082Z,97.50
2019-06-20T07:58:38.152Z,97.60
2019-06-20T08:00:03.752Z,97.80
2019-06-20T08:01:29.949Z,98.00
2019-06-20T08:02:55.468Z,97.90
2019-06-20T08:04:21.635Z,97.90
2019-06-20T08:05:47.277Z,98.10
2019-06-20T08:07:13.313Z,98.10
2019-06-20T08:08:38.870Z,98.20
2019-06-20T08:10:05.787Z,98.00
2019-06-20T08:11:31.295Z,98.10
2019-06-20T08:12:57.434Z,98.10
2019-06-20T08:14:22.879Z,98.10
2019-06-20T08:15:49.053Z,98.10
2019-06-20T08:17:14.639Z,98.10
2019-06-20T08:18:40.677Z,98.30
2019-06-20T08:20:09.130Z,98.40
2019-06-20T08:21:35.314Z,98.40
2019-06-20T08:23:00.811Z,98.90
2019-06-20T08:24:26.865Z,98.60
2019-06-20T08:25:52.544Z,98.60
2019-06-20T08:27:19.688Z,98.60
2019-06-20T08:28:45.779Z,98.60
2019-06-20T08:30:12.107Z,98.70
2019-06-20T08:31:38.491Z,98.80
2019-06-20T08:33:11.228Z,98.80
2019-06-20T08:34:33.892Z,98.80
2019-06-20T08:36:00.502Z,98.80
2019-06-20T08:37:26.822Z,98.90
2019-06-20T08:38:52.613Z,98.90
2019-06-20T08:40:21.144Z,98.90
2019-06-20T08:41:46.744Z,99.00
2019-06-20T08:43:13.443Z,98.90
2019-06-20T08:44:39.129Z,99.00
2019-06-20T08:46:10.095Z,98.90
2019-06-20T08:47:32.724Z,99.00
2019-06-20T08:48:59.516Z,99.00
2019-06-20T08:50:26.168Z,99.10
2019-06-20T08:51:52.723Z,99.00
2019-06-20T08:53:18.475Z,99.00
2019-06-20T08:54:44.572Z,98.90
2019-06-20T08:56:10.207Z,98.80
2019-06-20T08:57:36.493Z,98.70
2019-06-20T08:59:02.622Z,98.50
2019-06-20T09:00:29.976Z,98.60
2019-06-20T09:01:58.044Z,98.60
2019-06-20T09:03:23.101Z,98.60
2019-06-20T09:04:48.783Z,98.50
2019-06-20T09:06:14.994Z,98.30
2019-06-20T09:07:41.827Z,98.50
2019-06-20T09:09:09.885Z,98.20
2019-06-20T09:10:38.679Z,98.10
2019-06-20T09:12:05.170Z,98.00
2019-06-20T09:13:30.818Z,97.90
2019-06-20T09:14:57.232Z,97.90
2019-06-20T09:16:24.708Z,97.90
2019-06-20T09:17:52.938Z,97.80
2019-06-20T09:19:17.823Z,97.70
2019-06-20T09:20:44.099Z,97.70
2019-06-20T09:22:09.655Z,97.60
2019-06-20T09:23:35.858Z,97.50
2019-06-20T09:25:02.940Z,97.40
2019-06-20T09:26:29.176Z,97.30
2019-06-20T09:27:55.930Z,97.30
2019-06-20T09:29:22.237Z,97.10
2019-06-20T09:30:47.841Z,96.70
2019-06-20T09:32:14.261Z,96.80
2019-06-20T09:33:39.736Z,97.00
2019-06-20T09:35:06.733Z,97.00
2019-06-20T09:36:32.405Z,96.70
2019-06-20T09:37:59.346Z,96.60
2019-06-20T09:39:24.969Z,96.50
2019-06-20T09:40:51.924Z,96.30
2019-06-20T09:42:18.240Z,96.40
2019-06-20T09:43:44.337Z,96.60
2019-06-20T09:45:10.464Z,96.50
2019-06-20T09:46:36.567Z,96.10
2019-06-20T09:48:02.668Z,96.30
2019-06-20T09:49:28.988Z,96.00
2019-06-20T09:50:54.554Z,95.80
2019-06-20T09:52:20.676Z,95.80
2019-06-20T09:53:48.398Z,95.80
2019-06-20T09:55:14.998Z,95.70
2019-06-20T09:56:40.615Z,95.50
2019-06-20T09:58:07.127Z,95.10
2019-06-20T09:59:32.791Z,95.10
2019-06-20T10:00:59.103Z,95.20
2019-06-20T10:02:24.629Z,95.10
2019-06-20T10:03:50.671Z,95.00
2019-06-20T10:05:16.259Z,94.90
2019-06-20T10:06:42.424Z,94.70
2019-06-20T10:08:08.156Z,94.60
2019-06-20T10:09:34.182Z,94.80
2019-06-20T10:10:59.684Z,94.60
2019-06-20T10:12:25.751Z,94.40
2019-06-20T10:13:52.225Z,94.50
2019-06-20T10:15:24.115Z,94.70
2019-06-20T10:16:51.285Z,94.60
2019-06-20T10:18:17.319Z,94.60
2019-06-20T10:19:42.804Z,94.40
2019-06-20T10:21:08.982Z,94.30
2019-06-20T10:22:34.455Z,94.50
2019-06-20T10:24:00.571Z,94.80
2019-06-20T10:25:26.273Z,94.30
2019-06-20T10:26:53.324Z,94.30
2019-06-20T10:28:20.142Z,94.30
2019-06-20T10:29:47.478Z,94.30
2019-06-20T10:31:13.385Z,93.90
2019-06-20T10:32:39.472Z,93.70
2019-06-20T10:34:05.226Z,93.60
2019-06-20T10:35:31.322Z,93.70
2019-06-20T10:36:57.116Z,93.40
2019-06-20T10:38:23.386Z,93.30
2019-06-20T10:39:49.954Z,93.30
2019-06-20T10:41:16.192Z,93.30
2019-06-20T10:42:41.851Z,93.30
2019-06-20T10:44:08.220Z,93.20
2019-06-20T10:45:34.718Z,93.00
2019-06-20T10:47:00.868Z,92.70
2019-06-20T10:48:26.405Z,92.60
2019-06-20T10:49:52.491Z,92.30
2019-06-20T10:51:55.157Z,91.90
2019-06-20T10:53:20.741Z,91.80
2019-06-20T10:54:47.097Z,92.00
2019-06-20T10:56:12.821Z,91.30
2019-06-20T10:57:41.246Z,91.30
2019-06-20T10:59:06.400Z,91.40
2019-06-20T11:00:33.856Z,91.10
2019-06-20T11:01:59.324Z,91.30
2019-06-20T11:03:25.387Z,91.10
2019-06-20T11:04:50.904Z,91.30
2019-06-20T11:06:16.968Z,91.20
2019-06-20T11:07:43.792Z,91.20
2019-06-20T11:09:10.904Z,91.20
2019-06-20T11:10:37.013Z,91.20
2019-06-20T11:12:03.084Z,91.20
2019-06-20T11:13:28.568Z,91.20
2019-06-20T11:14:54.762Z,91.00
2019-06-20T11:16:20.438Z,91.00
2019-06-20T11:17:46.712Z,91.00
2019-06-20T11:19:12.453Z,91.00
2019-06-20T11:20:39.482Z,91.00
2019-06-20T11:22:05.822Z,90.90
2019-06-20T11:23:31.871Z,90.70
2019-06-20T11:24:57.389Z,90.80
2019-06-20T11:26:23.511Z,90.70
2019-06-20T11:27:49.126Z,90.80
2019-06-20T11:29:15.323Z,90.70
2019-06-20T11:30:52.650Z,90.80
2019-06-20T11:32:08.679Z,91.00
2019-06-20T11:33:36.578Z,91.10
2019-06-20T11:35:02.110Z,91.20
2019-06-20T11:36:27.584Z,91.40
2019-06-20T11:37:54.083Z,91.40
2019-06-20T11:39:19.668Z,91.80
2019-06-20T11:40:45.156Z,91.60
2019-06-20T11:42:10.662Z,92.10
2019-06-20T11:43:38.126Z,92.00
2019-06-20T11:45:04.255Z,92.00
2019-06-20T11:46:30.406Z,92.30
2019-06-20T11:47:55.991Z,92.50
2019-06-20T11:49:22.072Z,92.40
2019-06-20T11:50:47.696Z,92.30
2019-06-20T11:52:13.827Z,92.30
2019-06-20T11:53:40.603Z,92.30
2019-06-20T11:55:08.101Z,91.90
2019-06-20T11:56:33.690Z,92.00
2019-06-20T11:57:59.735Z,92.00
2019-06-20T11:59:25.259Z,92.00
2019-06-20T12:01:03.068Z,92.10
2019-06-20T12:02:18.604Z,92.00
2019-06-20T12:03:44.704Z,92.00
2019-06-20T12:05:10.317Z,92.00
2019-06-20T12:06:36.349Z,92.30
2019-06-20T12:08:01.911Z,92.20
2019-06-20T12:09:27.985Z,92.20
2019-06-20T12:10:53.513Z,92.30
2019-06-20T12:12:19.568Z,92.20
2019-06-20T12:13:46.406Z,92.20
2019-06-20T12:15:13.492Z,92.10
2019-06-20T12:16:40.507Z,92.20
2019-06-20T12:18:07.073Z,92.10
2019-06-20T12:19:32.630Z,92.10
2019-06-20T12:20:58.732Z,92.30
2019-06-20T12:22:26.380Z,92.50
2019-06-20T12:23:52.403Z,92.80
2019-06-20T12:25:18.570Z,93.00
2019-06-20T12:26:44.671Z,92.90
2019-06-20T12:28:10.160Z,93.10
2019-06-20T12:29:36.204Z,93.10
2019-06-20T12:31:01.894Z,93.20
2019-06-20T12:32:28.019Z,93.30
2019-06-20T12:33:53.479Z,93.60
2019-06-20T12:35:20.481Z,93.70
2019-06-20T12:36:46.630Z,93.70
2019-06-20T12:38:15.166Z,93.70
2019-06-20T12:39:40.409Z,93.90
2019-06-20T12:41:06.814Z,94.00
2019-06-20T12:42:32.326Z,93.90
2019-06-20T12:43:58.396Z,93.80
2019-06-20T12:45:23.955Z,93.90
2019-06-20T12:46:50.024Z,94.10
2019-06-20T12:48:15.586Z,94.00
2019-06-20T12:49:41.815Z,93.70
2019-06-20T12:51:07.434Z,93.50
2019-06-20T12:52:33.561Z,93.60
2019-06-20T12:53:59.064Z,93.20
2019-06-20T12:55:25.105Z,93.20
2019-06-20T12:56:50.749Z,93.00
2019-06-20T12:58:16.827Z,92.80
2019-06-20T12:59:42.712Z,92.40
2019-06-20T13:01:09.265Z,91.80
2019-06-20T13:02:36.381Z,91.70
2019-06-20T13:04:02.473Z,91.60
2019-06-20T13:05:28.153Z,91.40
2019-06-20T13:06:54.355Z,91.50
2019-06-20T13:08:19.865Z,91.50
2019-06-20T13:09:46.342Z,91.10
2019-06-20T13:11:11.983Z,91.30
2019-06-20T13:12:38.168Z,91.20
2019-06-20T13:14:03.885Z,91.10
2019-06-20T13:15:30.037Z,91.30
2019-06-20T13:16:55.636Z,91.10
2019-06-20T13:18:21.872Z,90.90
2019-06-20T13:19:48.539Z,90.90
2019-06-20T13:21:14.775Z,90.50
2019-06-20T13:22:41.369Z,90.30
2019-06-20T13:24:08.035Z,90.30
2019-06-20T13:25:33.590Z,90.40
2019-06-20T13:26:59.673Z,90.60
2019-06-20T13:28:25.147Z,90.90
2019-06-20T13:29:51.256Z,90.60
2019-06-20T13:31:16.698Z,90.80
2019-06-20T13:32:43.829Z,90.60
2019-06-20T13:34:10.530Z,90.70
2019-06-20T13:35:36.586Z,90.60
2019-06-20T13:37:02.340Z,90.50
2019-06-20T13:38:36.515Z,90.40
2019-06-20T13:40:00.448Z,90.10
2019-06-20T13:41:26.644Z,90.00
2019-06-20T13:42:54.624Z,89.80
2019-06-20T13:44:20.007Z,89.00
2019-06-20T13:45:47.174Z,88.60
2019-06-20T13:47:13.293Z,88.40
2019-06-20T13:48:38.922Z,87.00
2019-06-20T13:50:07.453Z,85.90
2019-06-20T13:51:33.063Z,85.10
2019-06-20T13:52:59.228Z,84.50
2019-06-20T13:54:24.771Z,84.10
2019-06-20T13:55:50.932Z,83.40
2019-06-20T13:57:16.426Z,82.70
2019-06-20T13:58:42.488Z,83.00
2019-06-20T14:00:08.893Z,82.90
2019-06-20T14:01:34.973Z,82.50
2019-06-20T14:03:00.501Z,81.90
2019-06-20T14:04:26.605Z,81.80
2019-06-20T14:05:53.614Z,81.70
2019-06-20T14:07:20.008Z,81.40
2019-06-20T14:08:46.019Z,81.70
2019-06-20T14:10:12.859Z,81.40
2019-06-20T14:11:38.327Z,81.00
2019-06-20T14:13:18.345Z,81.00
2019-06-20T14:14:31.664Z,80.10
2019-06-20T14:15:57.762Z,79.90
2019-06-20T14:17:23.274Z,79.30
2019-06-20T14:18:50.301Z,79.00
2019-06-20T14:20:16.583Z,78.40
2019-06-20T14:21:43.770Z,77.90
2019-06-20T14:23:09.613Z,77.90
2019-06-20T14:24:35.726Z,77.70
2019-06-20T14:26:01.335Z,77.80
2019-06-20T14:27:27.437Z,77.50
2019-06-20T14:28:52.906Z,77.30
2019-06-20T14:30:19.359Z,77.20
2019-06-20T14:31:45.549Z,77.30
2019-06-20T14:33:11.712Z,77.40
2019-06-20T14:34:37.219Z,77.10
2019-06-20T14:36:03.377Z,76.90
2019-06-20T14:37:28.852Z,77.00
2019-06-20T14:38:55.171Z,76.50
2019-06-20T14:40:20.999Z,76.60
2019-06-20T14:41:47.028Z,76.80
2019-06-20T14:43:12.606Z,76.40
2019-06-20T14:44:38.785Z,76.20
2019-06-20T14:46:04.420Z,76.10
2019-06-20T14:47:30.574Z,75.80
2019-06-20T14:48:56.073Z,75.80
2019-06-20T14:50:22.916Z,76.00
2019-06-20T14:51:48.569Z,75.60
2019-06-20T14:53:15.175Z,75.60
2019-06-20T14:54:40.689Z,75.50
2019-06-20T14:56:06.896Z,75.80
2019-06-20T14:57:32.375Z,75.90
2019-06-20T14:59:00.273Z,74.90
2019-06-20T15:00:26.622Z,74.90
2019-06-20T15:01:53.321Z,74.90
2019-06-20T15:03:19.069Z,75.00
2019-06-20T15:04:46.236Z,75.60
2019-06-20T15:06:12.177Z,74.90
2019-06-20T15:07:38.339Z,74.30
2019-06-20T15:09:06.093Z,73.80
2019-06-20T15:10:32.121Z,73.50
2019-06-20T15:11:57.605Z,73.70
2019-06-20T15:13:23.674Z,74.00
2019-06-20T15:14:49.797Z,73.60
2019-06-20T15:16:16.875Z,73.00
2019-06-20T15:17:43.321Z,72.60
2019-06-20T15:19:09.940Z,72.50
2019-06-20T15:20:35.540Z,72.20
2019-06-20T15:22:02.018Z,72.70
2019-06-20T15:23:27.532Z,72.50
2019-06-20T15:24:55.281Z,72.40
2019-06-20T15:26:20.889Z,72.20
2019-06-20T15:27:47.952Z,72.10
2019-06-20T15:29:14.178Z,72.40
2019-06-20T15:30:40.279Z,72.20
2019-06-20T15:32:05.912Z,72.50
2019-06-20T15:33:31.960Z,72.20
2019-06-20T15:35:03.330Z,72.20
2019-06-20T15:36:29.387Z,72.00
2019-06-20T15:37:55.596Z,71.90
2019-06-20T15:39:21.913Z,72.00
2019-06-20T15:40:49.361Z,71.50
2019-06-20T15:42:15.635Z,71.50
2019-06-20T15:43:41.246Z,71.90
2019-06-20T15:45:08.003Z,72.30
2019-06-20T15:46:33.452Z,72.40
2019-06-20T15:47:59.585Z,72.40
2019-06-20T15:49:25.160Z,72.40
2019-06-20T15:50:51.253Z,72.00
2019-06-20T15:52:16.744Z,72.10
2019-06-20T15:53:42.792Z,72.30
2019-06-20T15:55:08.485Z,71.90
2019-06-20T15:56:34.616Z,71.90
2019-06-20T15:58:00.246Z,71.20
2019-06-20T15:59:26.301Z,71.80
2019-06-20T16:00:51.785Z,71.30
2019-06-20T16:02:17.848Z,71.30
2019-06-20T16:03:43.445Z,71.10
2019-06-20T16:05:10.048Z,71.00
2019-06-20T16:06:35.654Z,71.30
2019-06-20T16:08:01.707Z,71.40
2019-06-20T16:09:27.248Z,71.40
2019-06-20T16:10:53.340Z,71.50
2019-06-20T16:12:18.946Z,71.60
2019-06-20T16:13:45.087Z,71.70
2019-06-20T16:15:11.590Z,71.60
2019-06-20T16:16:37.672Z,71.60
2019-06-20T16:18:03.621Z,71.40
2019-06-20T16:19:29.703Z,71.60
2019-06-20T16:20:55.182Z,71.80
2019-06-20T16:22:21.275Z,70.70
2019-06-20T16:23:47.561Z,69.20
2019-06-20T16:25:14.033Z,69.30
2019-06-20T16:26:39.681Z,68.70
2019-06-20T16:28:06.514Z,67.30
2019-06-20T16:29:31.991Z,67.30
2019-06-20T16:31:08.444Z,67.70
2019-06-20T16:32:25.180Z,68.00
2019-06-20T16:33:51.293Z,67.70
2019-06-20T16:35:18.126Z,67.20
2019-06-20T16:36:44.981Z,67.30
2019-06-20T16:38:10.479Z,66.30
2019-06-20T16:39:36.533Z,65.00
2019-06-20T16:41:02.055Z,66.10
2019-06-20T16:42:28.151Z,63.70
2019-06-20T16:43:53.719Z,62.20
2019-06-20T16:45:20.404Z,62.30
2019-06-20T16:46:46.108Z,62.80
2019-06-20T16:48:12.381Z,60.50
2019-06-20T16:49:38.053Z,58.90
2019-06-20T16:51:04.143Z,59.50
2019-06-20T16:52:29.600Z,59.20
2019-06-20T16:53:55.672Z,59.90
2019-06-20T16:55:21.217Z,60.60
2019-06-20T16:56:47.312Z,60.00
2019-06-20T16:58:12.826Z,60.80
2019-06-20T16:59:38.868Z,60.20
2019-06-20T17:01:04.428Z,61.40
2019-06-20T17:02:30.479Z,60.10
2019-06-20T17:03:56.006Z,60.80
2019-06-20T17:05:22.452Z,61.30
2019-06-20T17:06:47.960Z,59.10
2019-06-20T17:08:14.149Z,59.80
2019-06-20T17:09:39.599Z,59.40
2019-06-20T17:11:05.921Z,59.30
2019-06-20T17:12:31.601Z,57.70
2019-06-20T17:13:57.678Z,57.10
2019-06-20T17:15:23.473Z,57.40
2019-06-20T17:16:49.548Z,58.20
2019-06-20T17:18:15.506Z,54.70
2019-06-20T17:19:42.317Z,49.90
2019-06-20T17:21:07.825Z,51.10
2019-06-20T17:22:33.949Z,52.10
2019-06-20T17:23:59.564Z,53.20
2019-06-20T17:25:25.706Z,51.80
2019-06-20T17:26:51.192Z,50.40
2019-06-20T17:28:17.435Z,52.10
2019-06-20T17:29:42.867Z,53.20
2019-06-20T17:31:08.940Z,51.70
2019-06-20T17:32:34.470Z,54.20
2019-06-20T17:34:00.505Z,54.90
2019-06-20T17:35:26.156Z,54.90
2019-06-20T17:36:52.239Z,51.90
2019-06-20T17:38:17.822Z,51.60
2019-06-20T17:39:43.973Z,54.90
2019-06-20T17:41:09.449Z,54.90
2019-06-20T17:42:35.722Z,53.00
2019-06-20T17:44:01.186Z,53.00
2019-06-20T17:45:28.753Z,52.20
2019-06-20T17:46:54.412Z,52.70
2019-06-20T17:48:20.625Z,49.20
2019-06-20T17:49:46.072Z,51.10
2019-06-20T17:51:12.343Z,51.20
2019-06-20T17:52:37.930Z,49.90
2019-06-20T17:54:03.976Z,52.60
2019-06-20T17:55:29.473Z,53.70
2019-06-20T17:56:55.671Z,53.50
2019-06-20T17:58:21.179Z,54.70
2019-06-20T17:59:47.332Z,56.90
2019-06-20T18:01:12.817Z,58.00
2019-06-20T18:02:38.930Z,56.30
2019-06-20T18:04:13.337Z,54.80
2019-06-20T18:05:32.293Z,53.80
2019-06-20T18:06:57.853Z,55.60
2019-06-20T18:08:23.976Z,56.20
2019-06-20T18:09:52.700Z,55.60
2019-06-20T18:11:17.231Z,56.40
2019-06-20T18:12:42.714Z,57.20
2019-06-20T18:14:08.921Z,57.10
2019-06-20T18:15:34.386Z,55.50
2019-06-20T18:17:00.537Z,55.90
2019-06-20T18:18:26.136Z,55.00
2019-06-20T18:19:52.185Z,55.50
2019-06-20T18:21:17.647Z,55.00
2019-06-20T18:22:43.730Z,54.60
2019-06-20T18:24:09.393Z,55.00
2019-06-20T18:25:35.524Z,56.20
2019-06-20T18:27:01.024Z,54.80
2019-06-20T18:28:27.101Z,56.30
2019-06-20T18:29:52.574Z,54.60